Terminal Aerodrome Forecast
Issued by NWS Twin Cities, MN

Home | Current Version | Previous Version | Graphics & Text | Print | Product List | Glossary On
Versions: 1 2 3 4 5 6 7 8 9 10 11 12 13 14 15
000
FTUS43 KMPX 211024 AAA
TAFEAU
TAF AMD
KEAU 211024Z 2110/2206 17010KT P6SM VCSH BKN080
     FM211300 18011KT 6SM -SHRA VCTS OVC045CB
     FM211600 18012G20KT P6SM OVC040
     FM211800 17010KT P6SM OVC025
     FM220300 19008KT 4SM SHRA OVC020=

USA.gov is the U.S. government's official web portal to all federal, state and local government web resources and services.